Date,TemperatureHighF,TemperatureAvgF,TemperatureLowF,DewpointHighF,DewpointAvgF,DewpointLowF,HumidityHigh,HumidityAvg,HumidityLow,PressureMaxIn,PressureMinIn,WindSpeedMaxMPH,WindSpeedAvgMPH,GustSpeedMaxMPH,PrecipitationSumIn
2014-1-1,31.1,26.0,22.1,-0.1,-4.7,-8.0,32,26,23,0.00,0.00,19,6,19,0.00
2014-1-2,33.1,28.4,25.0,22.6,13.2,-5.5,82,55,24,0.00,0.00,27,7,27,0.00
2014-1-3,27.3,16.1,5.0,22.9,9.4,-2.8,86,75,67,0.00,0.00,31,10,31,3.58
2014-1-4,36.3,21.0,3.6,21.0,7.8,-4.0,70,58,42,0.00,0.00,17,8,17,0.00
2014-1-5,46.0,36.3,26.6,41.5,19.7,9.1,84,52,40,0.00,0.00,22,4,22,0.08
2014-1-6,58.1,45.2,30.7,56.5,40.2,3.7,96,85,31,29.35,0.00,28,10,28,0.12
2014-1-7,31.6,17.4,10.2,7.1,-9.5,-17.3,43,29,26,30.12,29.35,23,11,28,0.04
2014-1-8,24.6,16.8,10.2,-7.0,-12.0,-17.1,29,26,24,30.33,30.12,20,8,20,0.04
2014-1-9,32.2,22.3,17.1,-1.4,-6.9,-10.8,34,27,23,30.50,30.30,15,5,15,0.04
2014-1-10,44.6,33.3,17.1,34.9,15.2,-6.5,69,48,34,30.45,30.12,12,3,12,0.04
2014-1-11,59.0,52.2,42.4,56.7,45.7,34.7,93,79,54,30.12,29.18,33,11,33,0.31
2014-1-12,49.8,41.1,35.4,47.6,22.3,7.4,95,53,27,29.83,29.18,19,6,19,0.16
2014-1-13,50.2,40.5,32.2,31.8,20.0,8.4,50,44,32,30.00,29.80,20,5,20,0.04
2014-1-14,53.2,48.8,42.1,43.1,35.6,27.5,89,62,47,29.80,29.41,20,6,20,0.87
2014-1-15,47.7,39.4,34.5,38.0,28.9,20.6,86,68,40,29.88,29.59,8,2,10,0.04
2014-1-16,43.2,39.2,36.7,36.1,30.5,23.3,76,71,58,29.77,29.68,5,2,10,0.00
2014-1-17,41.7,37.1,31.1,32.3,24.7,14.8,78,62,41,29.85,29.74,10,3,10,0.04
2014-1-18,41.9,37.8,34.3,32.1,26.6,22.3,76,64,53,29.77,29.41,20,3,20,0.31
2014-1-19,36.9,34.1,31.6,26.6,14.1,7.5,73,45,32,29.59,29.44,26,14,26,0.04
2014-1-20,44.1,37.7,32.2,19.7,12.7,2.6,48,35,28,29.68,29.35,22,11,22,0.04
2014-1-21,32.0,24.8,21.2,2.6,-6.0,-9.1,28,25,23,29.88,29.68,16,6,19,0.00
2014-1-24,22.5,18.5,15.6,-2.3,-11.3,-15.3,33,25,22,30.06,29.94,19,8,19,0.04
2014-1-25,42.1,32.8,22.6,18.7,8.9,-2.3,60,37,29,29.94,29.21,26,12,26,0.04
2014-1-26,27.9,22.6,18.3,7.2,-4.2,-11.3,41,30,24,29.74,29.21,26,9,26,0.04
2014-1-27,51.3,37.3,24.1,27.3,13.0,-7.5,50,37,23,29.83,29.41,25,9,25,0.04
2014-1-28,24.6,19.7,13.6,-7.5,-12.2,-16.4,25,23,22,30.15,29.80,17,6,19,0.00
2014-1-29,27.5,20.9,15.8,0.7,-6.4,-13.1,45,30,22,30.06,29.83,19,6,19,0.04
2014-1-30,31.6,23.2,16.2,7.5,-5.7,-12.7,40,27,23,30.30,30.06,14,5,14,0.04
2014-1-31,38.3,33.8,28.9,17.0,11.4,7.2,50,39,29,30.06,29.88,13,5,14,0.04
2014-2-1,47.1,36.7,31.3,16.1,8.7,3.3,42,31,20,30.18,29.88,14,3,14,0.04
2014-2-2,41.2,38.8,37.0,25.8,22.1,16.1,55,51,42,29.88,29.71,14,3,14,0.04
2014-2-3,38.7,35.0,31.3,22.8,20.0,16.4,64,54,42,30.09,29.85,14,2,14,0.04
2014-2-4,40.5,29.7,23.0,20.2,11.5,3.3,63,48,30,30.30,30.09,2,2,2,0.08
2014-2-5,35.6,32.1,27.5,24.5,18.1,8.5,70,56,44,30.15,29.38,17,4,17,0.04
2014-2-6,37.0,28.7,23.7,17.8,6.4,-0.2,59,39,27,30.09,29.71,14,4,20,0.04
2014-2-7,35.4,27.3,20.5,3.7,-1.0,-4.7,33,29,22,30.12,30.00,14,7,14,0.04
2014-2-8,32.9,26.6,20.7,3.0,-3.2,-9.3,35,27,23,30.15,29.94,14,6,16,0.00
2014-2-9,35.8,29.0,23.9,14.8,3.1,-6.1,57,33,24,29.97,29.80,15,4,15,0.04
2014-2-10,34.9,26.4,20.5,14.2,0.4,-9.7,56,33,22,30.03,29.74,19,8,19,0.04
2014-2-11,31.1,21.7,15.4,-2.5,-7.1,-12.1,35,27,22,30.24,30.03,16,7,16,0.04
2014-2-12,35.6,20.5,9.3,2.6,-7.7,-18.0,34,28,22,30.39,30.24,17,4,17,0.00
2014-2-13,41.5,34.7,22.8,35.9,22.8,-1.2,89,64,34,30.24,28.79,31,7,31,1.50
2014-2-14,39.4,35.5,32.7,36.2,19.6,7.0,89,56,31,29.59,28.61,26,10,26,0.12
2014-2-15,37.0,32.0,25.7,29.1,13.8,6.6,90,48,32,29.68,29.15,17,3,17,0.00
2014-2-16,37.0,28.9,23.0,28.1,6.4,-2.9,94,42,24,29.80,29.21,2,2,2,0.00
2014-2-17,34.5,22.9,12.9,-0.2,-8.1,-14.8,30,25,20,30.21,29.80,5,2,5,0.00
2014-2-18,37.9,26.9,11.3,26.6,7.1,-16.2,68,44,27,30.21,29.65,20,6,20,0.31
2014-2-19,45.3,34.6,22.6,35.0,17.4,5.0,76,51,29,29.94,29.50,20,6,27,0.39
2014-2-20,46.6,37.7,32.5,28.7,19.8,10.0,78,52,28,30.06,29.68,10,3,10,0.08
2014-2-21,57.6,42.8,34.9,54.0,33.1,16.5,90,69,46,30.00,29.56,28,6,28,0.31
2014-2-22,46.4,38.1,33.3,38.4,27.0,14.3,90,68,29,29.83,29.68,14,5,14,0.00
2014-2-23,50.5,40.9,35.6,29.3,21.1,15.5,59,46,31,29.83,29.59,14,3,14,0.00
2014-2-24,40.8,35.0,24.6,20.9,5.5,-7.0,51,30,21,29.80,29.56,21,7,21,0.04
2014-2-25,34.0,25.8,21.9,-0.2,-6.1,-8.5,25,24,22,29.85,29.71,19,9,19,0.00
2014-2-26,33.4,25.0,17.4,6.9,-6.0,-14.2,42,25,22,29.80,29.59,18,7,18,0.00
2014-2-27,33.4,22.3,10.6,8.8,-7.8,-19.1,38,26,23,29.71,29.41,17,6,17,0.00
2014-3-7,44.8,37.0,34.0,14.0,9.9,7.2,43,32,25,30.06,29.74,11,5,14,0.00
2014-3-8,52.3,38.4,30.4,22.0,15.0,6.0,60,40,24,29.74,29.53,15,4,15,0.00
2014-3-9,52.3,36.3,28.6,11.9,3.2,-3.7,37,25,18,29.77,29.68,14,5,14,0.00
2014-3-10,46.2,35.3,30.2,20.5,11.1,-1.3,51,37,23,29.74,29.50,13,4,14,0.00
2014-3-11,52.3,41.9,35.4,24.6,17.9,11.2,51,39,26,29.56,29.35,14,4,14,0.00
2014-3-12,59.4,49.0,38.1,49.2,25.3,12.2,81,41,25,29.56,28.79,19,7,27,0.31
2014-3-13,47.3,26.1,19.0,39.1,4.7,-11.0,80,41,24,29.77,28.76,27,10,27,0.00
2014-3-14,45.3,27.5,16.3,15.3,-1.2,-12.7,40,28,25,30.06,29.77,24,9,24,0.00
2014-3-15,57.0,42.2,35.6,26.0,17.9,7.6,49,38,20,29.83,29.53,19,7,19,0.00
2014-3-16,40.1,34.3,29.5,14.1,1.3,-3.7,38,24,21,30.00,29.74,19,8,24,0.00
2014-3-17,47.8,27.2,16.3,7.4,-5.1,-11.1,31,24,19,30.00,29.85,20,7,20,0.00
2014-3-18,56.7,28.5,14.4,12.4,-0.8,-9.1,39,29,17,30.18,30.00,15,3,15,0.00
2014-3-19,50.7,34.4,20.7,22.3,7.3,-3.2,54,33,19,30.21,29.80,19,5,19,0.00
2014-3-20,60.1,44.0,37.4,42.6,26.3,10.1,87,54,19,29.83,29.47,28,7,28,0.28
2014-3-21,57.0,40.1,33.4,16.0,8.6,2.8,39,27,17,29.88,29.62,18,9,18,0.00
2014-3-22,57.2,40.2,25.3,21.7,11.1,-0.4,44,30,22,29.91,29.53,30,7,30,0.00
2014-3-23,45.7,37.9,30.4,14.8,7.0,-3.0,40,28,20,29.85,29.71,17,6,17,0.00
2014-3-24,54.9,27.0,16.9,12.2,-6.7,-14.5,25,22,18,30.00,29.85,25,6,25,0.00
2014-3-25,39.7,29.5,17.2,2.9,-3.7,-12.1,26,23,21,30.00,29.68,14,4,14,0.00
2014-3-26,41.4,30.3,25.5,31.4,10.3,-8.5,97,50,21,29.83,29.32,35,14,35,0.00
2014-3-27,47.3,31.0,21.6,13.7,-1.1,-11.4,40,25,19,30.18,29.83,28,10,30,0.00
2014-3-28,53.1,43.0,35.6,32.5,23.0,13.7,64,45,32,30.12,29.85,19,9,21,0.00
2014-3-29,52.2,44.0,36.1,38.8,29.6,24.5,71,58,36,30.06,29.77,13,5,13,0.79
2014-3-30,57.9,46.8,37.4,56.0,43.2,33.5,97,87,71,29.77,29.38,29,10,29,0.04
2014-3-31,39.4,36.9,34.9,33.6,24.6,15.3,86,63,40,29.77,29.44,30,11,30,0.00
2014-4-1,67.6,41.7,36.0,22.8,13.4,3.8,58,33,15,29.94,29.77,24,8,28,0.00
2014-4-2,66.0,40.7,28.2,24.3,15.2,9.5,55,36,18,29.97,29.88,12,4,12,0.00
2014-4-3,67.1,44.8,34.3,32.0,16.8,6.4,72,37,15,29.94,29.88,15,4,15,0.00
2014-4-4,58.3,43.8,35.4,27.0,15.3,8.7,60,33,17,29.97,29.68,26,6,26,0.00
2014-4-5,69.1,45.3,39.0,40.8,26.8,4.5,86,53,17,29.77,29.47,19,6,19,0.00
2014-4-6,63.7,41.9,35.4,22.3,12.6,6.0,50,31,18,30.03,29.77,15,7,16,0.00
2014-4-7,56.8,45.3,34.0,42.0,21.9,7.7,80,43,17,30.09,29.71,20,5,20,0.00
2014-4-8,56.3,48.0,42.4,53.7,44.1,22.2,92,87,38,29.71,29.23,28,9,28,0.00
2014-4-9,73.2,48.3,41.2,24.1,18.2,4.5,48,31,14,29.80,29.35,14,5,14,0.00
2014-4-10,72.0,44.4,28.2,24.4,11.6,-1.1,38,27,14,30.03,29.80,21,7,21,0.00
2014-4-11,71.6,51.7,45.3,31.1,26.0,18.4,53,38,16,29.91,29.80,20,6,21,0.00
2014-4-12,82.0,54.2,45.5,39.9,25.7,12.7,69,37,12,30.06,29.80,14,4,14,0.00
2014-4-13,82.8,56.2,42.1,41.7,23.7,15.7,68,31,14,30.09,29.91,21,6,21,0.00
2014-4-14,64.6,55.0,48.0,45.7,39.3,31.6,80,58,31,29.94,29.77,26,8,26,0.00
2014-4-15,69.6,61.0,50.9,54.2,43.4,32.2,81,55,26,29.77,29.41,42,13,42,0.00
2014-4-16,71.4,42.3,34.0,43.7,16.0,0.7,83,41,14,30.39,29.47,23,8,23,0.00
2014-4-17,64.0,40.0,30.0,16.8,8.0,2.6,34,27,16,30.59,30.39,21,7,21,0.00
2014-4-18,52.0,40.0,27.5,21.6,15.2,5.1,52,37,26,30.47,30.09,15,3,15,0.00
2014-4-19,83.8,51.1,38.1,29.6,21.1,8.1,62,35,12,30.21,30.00,10,5,13,0.00
2014-4-20,79.7,47.7,33.3,25.4,12.5,5.0,49,25,12,30.33,30.18,17,5,17,0.00
2014-4-21,76.8,48.2,32.5,33.7,25.2,18.7,69,44,15,30.18,29.71,10,2,10,0.00
2014-4-22,66.0,53.3,44.2,39.8,32.3,23.9,71,48,24,29.71,29.32,14,4,14,0.00
2014-4-23,53.1,48.8,47.1,47.1,40.5,38.8,81,73,62,29.32,29.23,14,3,14,0.00
2014-4-25,80.1,56.8,46.2,23.8,14.8,8.6,28,19,12,29.80,29.68,16,6,16,0.00
2014-4-26,52.3,46.8,39.2,29.6,21.2,14.8,49,36,28,29.68,29.53,16,5,20,0.00
2014-4-27,59.5,45.6,40.3,34.4,26.9,17.8,66,49,25,29.85,29.65,12,3,12,0.00
2014-4-28,63.0,49.0,39.6,35.8,22.5,15.9,72,38,18,30.00,29.80,21,7,21,0.00
2014-4-29,54.5,46.0,42.3,26.3,20.1,15.9,50,36,25,30.30,30.00,24,8,24,0.00
2014-4-30,55.4,45.7,41.4,43.0,26.5,17.2,86,49,27,30.33,29.97,19,6,19,0.00
2014-5-1,60.4,52.5,46.9,58.1,48.6,43.0,92,87,82,29.97,29.50,25,7,25,0.00
2014-5-2,73.2,53.9,46.8,52.8,36.3,20.3,90,58,16,29.65,29.50,16,4,16,0.00
2014-5-3,85.3,55.4,41.0,42.2,29.1,15.9,73,42,13,29.71,29.56,13,3,13,0.00
2014-5-4,59.7,52.9,48.9,43.6,28.2,18.0,76,41,26,29.56,29.35,26,9,26,0.00
2014-5-5,80.1,57.3,47.1,30.1,24.0,18.4,47,28,15,29.68,29.41,15,5,17,0.00
2014-5-6,75.4,53.0,40.6,34.4,23.8,12.5,64,35,14,29.83,29.65,16,3,16,0.00
2014-5-7,72.5,54.0,38.7,25.0,19.4,12.1,50,27,14,30.00,29.83,12,4,12,0.00
2014-5-8,72.5,54.9,47.8,42.1,33.3,24.1,68,46,22,30.03,29.91,12,4,12,0.00
2014-5-9,63.9,57.4,52.2,50.9,38.0,19.5,76,52,22,30.03,29.91,17,5,17,0.00
2014-5-10,69.1,61.0,54.5,55.1,44.1,34.1,74,55,31,29.91,29.62,21,8,21,0.00
2014-5-11,80.8,60.4,52.7,52.6,37.2,23.1,83,47,15,29.85,29.62,15,5,15,0.00
2014-5-12,87.6,61.7,48.4,38.0,31.9,24.6,63,36,13,29.94,29.85,15,4,15,0.00
2014-5-13,67.6,54.8,47.5,38.1,25.6,18.3,52,33,17,30.12,29.85,21,7,21,0.00
2014-5-14,86.0,60.1,46.2,41.1,30.5,24.4,52,36,13,30.15,30.09,15,4,15,0.00
2014-5-15,97.0,69.9,58.6,46.9,40.5,28.2,57,38,11,30.12,30.03,19,6,19,0.00
2014-5-16,78.4,66.6,60.1,55.8,44.6,33.4,77,49,21,30.03,29.83,26,10,26,0.00
2014-5-17,83.5,64.1,54.5,59.8,44.1,24.6,86,54,14,29.85,29.68,28,7,28,0.00
2014-5-18,72.0,59.3,50.9,37.0,27.8,22.5,55,31,19,29.91,29.83,12,3,12,0.00
2014-5-19,69.1,57.9,50.2,36.5,22.4,15.8,56,27,15,29.88,29.80,20,5,20,0.00
2014-5-20,95.7,63.5,51.8,38.8,28.8,19.7,59,30,11,29.83,29.77,15,4,15,0.00
2014-5-21,91.8,62.9,47.3,44.6,33.0,21.5,66,37,12,29.80,29.74,13,3,13,0.00
2014-5-22,71.2,58.3,51.6,49.8,39.8,26.7,75,53,22,29.77,29.68,17,3,17,0.00
2014-5-23,86.2,62.1,52.9,52.1,37.3,21.5,78,46,13,29.77,29.68,15,4,15,0.00
2014-5-24,91.2,60.5,52.2,40.8,31.8,20.1,63,37,12,29.85,29.71,20,6,20,0.00
2014-5-25,81.1,61.5,53.8,42.5,34.9,25.9,63,40,17,29.91,29.83,10,4,11,0.00
2014-5-26,71.4,60.6,54.9,53.6,45.9,34.6,81,60,28,29.85,29.65,14,5,14,0.00
2014-5-27,78.6,64.5,54.1,53.6,41.2,28.8,70,47,21,29.71,29.62,16,4,16,0.00
2014-5-28,55.0,51.8,48.2,46.6,42.1,36.8,78,70,54,29.97,29.65,19,6,19,4.37
2014-5-29,79.9,56.3,43.7,42.6,29.5,18.5,75,42,14,30.03,29.97,14,4,14,0.00
2014-5-30,75.0,56.0,41.4,42.1,29.6,22.6,70,41,16,29.97,29.83,10,3,10,0.00
2014-5-31,79.5,59.2,50.7,42.3,31.5,22.6,62,38,15,30.06,29.83,19,5,19,0.00
2014-6-1,94.8,63.9,49.3,37.7,28.7,20.1,62,30,11,30.12,30.06,12,3,12,0.00
2014-6-2,84.6,63.8,52.3,40.4,32.9,26.4,51,33,16,30.06,29.85,11,3,11,0.00
2014-6-3,88.3,65.8,54.0,45.5,33.1,19.1,59,32,13,29.85,29.71,18,5,18,0.00
2014-6-4,71.4,61.0,56.3,53.9,44.7,29.8,76,57,31,29.71,29.59,15,4,15,0.04
2014-6-5,64.0,60.5,57.7,58.8,54.8,52.6,83,82,76,29.59,29.38,15,4,15,0.00
2014-6-6,82.2,65.5,57.6,55.9,42.7,32.1,86,49,20,29.68,29.50,10,3,10,0.00
2014-6-7,88.2,67.0,55.9,47.8,39.3,30.4,65,39,16,29.74,29.68,10,3,10,0.00
2014-6-8,90.5,71.1,58.6,55.0,40.5,28.1,70,37,15,29.74,29.68,9,2,9,0.00
2014-6-9,71.6,66.6,63.1,54.6,49.1,40.8,68,55,34,29.80,29.71,9,2,9,0.00
2014-6-10,66.7,66.2,64.4,58.2,55.9,51.3,74,70,60,29.80,29.77,7,2,7,0.00
2014-6-11,75.9,68.2,60.1,58.2,35.3,23.1,74,34,15,29.97,29.77,22,5,22,0.00
2014-6-12,75.7,65.3,58.8,45.2,38.2,27.7,54,38,24,29.94,29.85,20,7,20,0.00
2014-6-13,72.7,65.5,60.6,64.8,57.7,45.1,84,76,54,29.85,29.56,20,6,20,0.00
2014-6-14,78.8,67.7,62.4,66.0,55.4,36.7,88,68,30,29.71,29.59,13,2,13,0.00
2014-6-15,88.5,67.2,58.1,46.6,38.8,32.6,53,37,18,29.83,29.68,12,3,12,0.00
2014-6-16,84.2,67.4,57.9,42.7,33.9,24.4,50,31,15,29.94,29.83,12,3,12,0.00
2014-6-17,72.7,67.3,61.5,61.4,48.0,39.3,85,52,33,29.91,29.74,11,3,11,0.00
2014-6-18,92.8,73.8,64.6,64.2,50.4,34.5,89,53,15,29.74,29.56,15,3,15,0.00
2014-6-19,79.9,70.7,62.6,58.3,48.9,42.2,68,47,29,29.77,29.71,9,2,9,0.00
2014-6-20,84.9,66.6,54.3,45.2,31.1,23.1,58,30,13,29.77,29.68,10,2,10,0.00
2014-6-21,73.9,63.1,52.7,42.7,31.1,25.7,57,32,19,29.77,29.68,10,2,10,0.00
2014-6-22,78.3,66.0,55.2,47.0,34.5,24.4,63,34,15,29.83,29.71,8,2,8,0.00
2014-6-23,81.7,67.3,55.6,53.3,35.7,24.4,70,37,14,29.97,29.83,12,3,12,0.00
2014-6-24,83.7,68.0,57.2,44.4,37.2,31.6,57,34,19,30.00,29.85,11,3,11,0.00
2014-6-25,84.7,71.0,66.6,63.3,54.8,42.3,75,57,31,29.85,29.68,10,3,10,0.00
2014-6-26,80.2,70.1,60.3,69.9,56.5,40.1,84,64,31,29.77,29.59,16,3,16,0.00
2014-6-27,85.6,66.0,56.3,51.4,35.8,20.7,72,39,13,30.00,29.77,16,3,16,0.00
2014-6-28,78.8,65.1,52.2,47.4,38.0,30.7,55,39,22,30.09,30.00,10,3,10,0.00
2014-6-29,77.2,69.5,64.6,56.7,46.1,34.7,71,46,22,30.06,29.94,10,3,10,0.00
2014-6-30,79.9,70.7,66.4,61.8,55.6,46.5,79,61,32,29.94,29.77,13,4,13,0.00
2014-7-1,77.0,72.1,68.4,65.9,61.0,53.8,87,70,46,29.77,29.68,10,4,11,0.00
2014-7-2,84.4,75.7,70.0,69.0,61.2,51.4,87,64,34,29.77,29.65,14,3,14,0.00
2014-7-3,87.1,76.7,73.2,70.6,62.8,47.9,85,65,28,29.80,29.71,11,2,11,0.00
2014-7-4,80.6,70.3,62.2,68.5,63.7,58.7,89,80,54,29.80,29.44,22,4,22,0.00
2014-7-5,84.6,69.6,59.5,60.3,39.2,23.9,87,40,13,29.83,29.53,21,7,21,0.00
2014-7-6,76.8,71.2,67.6,55.7,41.7,33.5,64,36,25,29.83,29.71,16,8,16,0.00
2014-7-7,78.8,71.2,67.3,61.3,53.4,48.1,75,54,35,29.74,29.56,15,7,15,0.00
2014-7-8,81.3,74.1,71.8,66.0,60.9,50.5,81,66,35,29.59,29.56,15,6,15,0.00
2014-7-9,79.5,73.3,69.1,66.2,57.3,49.6,83,59,36,29.77,29.53,12,5,17,0.00
2014-7-10,83.7,73.6,66.9,68.6,51.8,33.4,88,55,19,29.94,29.74,12,2,12,0.00
2014-7-11,86.5,73.0,66.4,62.2,48.0,36.8,78,46,19,30.00,29.91,9,2,9,0.00
2014-7-12,84.6,72.0,63.5,56.7,45.2,33.4,71,42,19,30.03,29.94,10,3,10,0.00
2014-7-13,82.4,73.8,68.7,63.2,55.8,46.5,77,56,30,29.94,29.74,15,5,15,0.00
2014-7-14,77.7,73.3,71.8,68.1,63.9,55.8,84,73,48,29.77,29.68,14,4,15,0.00
2014-7-15,79.5,75.0,72.9,69.7,67.3,61.0,85,77,55,29.71,29.62,14,4,14,0.00
2014-7-16,75.7,72.5,70.2,70.6,67.2,64.6,87,83,79,29.62,29.62,17,4,17,0.00
2014-7-17,79.3,72.1,67.6,66.5,52.3,34.1,88,57,22,29.62,29.62,4,2,5,0.00
2014-7-18,80.8,71.7,63.3,55.3,41.0,27.1,65,37,15,29.62,29.62,9,2,9,0.00
2014-7-19,79.5,69.3,60.4,58.3,41.5,28.8,70,40,17,29.62,29.62,13,3,13,0.00
2014-7-20,75.0,67.7,63.5,55.5,44.0,37.1,72,43,32,29.62,29.62,13,3,13,0.00
2014-7-21,83.7,69.0,62.6,58.4,48.1,32.6,80,53,19,29.62,29.62,14,3,14,0.00
2014-7-22,81.5,70.7,60.1,60.0,52.4,42.7,77,55,26,29.62,29.62,11,3,11,0.00
2014-7-23,81.1,73.7,70.2,66.3,57.6,44.1,81,60,30,29.62,29.62,14,5,14,0.00
2014-7-24,77.2,70.7,63.7,68.4,58.2,47.0,85,66,44,29.62,29.62,10,3,11,0.00
2014-7-25,80.6,70.6,62.6,57.8,42.7,26.9,78,42,15,29.62,29.62,10,3,10,0.00
2014-7-26,76.8,71.6,68.7,59.9,52.4,44.4,70,51,38,29.62,29.62,10,5,12,0.00
2014-7-27,75.0,71.8,68.7,64.2,57.5,50.5,78,61,43,29.62,29.62,14,4,14,0.00
2014-7-28,83.8,74.9,70.3,68.5,59.8,48.3,83,62,35,0.00,0.00,15,5,15,0.00
2014-7-29,77.9,71.5,66.6,55.7,43.6,35.4,59,38,22,0.00,0.00,13,6,13,0.00
2014-7-30,77.7,70.5,60.4,55.9,41.0,32.3,67,37,20,0.00,0.00,10,4,10,0.00
2014-7-31,80.1,72.9,66.0,53.3,42.1,36.4,55,34,22,0.00,0.00,11,4,11,0.00
2014-8-1,79.9,73.4,68.9,57.0,49.4,42.8,61,44,30,0.00,0.00,10,3,10,0.00
2014-8-2,69.3,65.4,61.5,57.6,53.1,48.1,82,65,51,0.00,0.00,13,3,13,0.00
2014-8-3,70.0,65.9,63.0,63.9,59.5,57.6,85,80,72,0.00,0.00,9,2,10,0.00
2014-8-4,79.9,71.0,66.0,65.1,58.6,48.9,84,67,35,0.00,0.00,10,3,10,0.00
2014-8-5,84.7,73.8,70.0,66.0,60.0,45.7,83,65,29,0.00,0.00,9,2,9,0.00
2014-8-6,81.3,72.5,66.9,65.1,54.7,43.3,81,57,27,0.00,0.00,10,2,10,0.00
2014-8-7,80.4,68.1,60.1,58.5,44.8,33.5,70,47,21,0.00,0.00,8,2,9,0.00
2014-8-8,82.6,69.2,59.9,55.1,44.9,34.9,73,45,21,0.00,0.00,14,3,14,0.00
2014-8-9,88.7,72.4,63.1,51.6,41.8,28.1,59,36,13,0.00,0.00,10,2,10,0.00
2014-8-10,68.9,68.6,65.3,56.7,55.4,45.3,65,63,46,0.00,0.00,10,2,10,0.00
2014-8-11,68.9,68.9,68.9,56.7,56.7,56.7,65,65,65,0.00,0.00,8,3,8,0.00
2014-8-12,68.9,68.9,68.9,56.7,56.7,56.7,65,65,65,0.00,0.00,18,5,18,0.00
2014-8-13,68.9,68.9,68.9,56.7,56.7,56.7,65,65,65,0.00,0.00,22,8,28,0.00
2014-8-14,68.9,68.9,68.9,56.7,56.7,56.7,65,65,65,0.00,0.00,13,4,13,0.00
2014-8-15,68.9,68.9,68.9,56.7,56.7,56.7,65,65,65,0.00,0.00,17,6,17,0.00
2014-8-16,68.9,68.9,68.9,56.7,56.7,56.7,65,65,65,0.00,0.00,14,6,14,0.00
2014-8-17,68.9,68.9,68.9,56.7,56.7,56.7,65,65,65,0.00,0.00,12,4,12,0.00
2014-8-18,68.9,68.9,68.9,56.7,56.7,56.7,65,65,65,0.00,0.00,13,3,13,0.00
2014-8-19,68.9,68.9,68.9,56.7,56.7,56.7,65,65,65,0.00,0.00,2,2,4,0.00
2014-8-21,0.0,0.0,0.0,0.0,0.0,0.0,0,0,100,29.85,29.83,12,3,12,0.00
2014-8-22,0.0,0.0,0.0,0.0,0.0,0.0,0,0,100,29.85,29.83,13,3,13,0.00
2014-8-23,0.0,0.0,0.0,0.0,0.0,0.0,0,0,100,29.91,29.83,15,4,15,0.00
2014-8-24,0.0,0.0,0.0,0.0,0.0,0.0,0,0,100,29.94,29.88,14,3,14,0.00
2014-8-25,0.0,0.0,0.0,0.0,0.0,0.0,0,0,100,29.94,29.91,7,2,7,0.00
2014-8-31,0.0,0.0,0.0,0.0,0.0,0.0,0,0,100,29.85,29.77,12,4,12,0.00
2014-9-1,0.0,0.0,0.0,0.0,0.0,0.0,0,0,100,29.80,29.74,10,2,10,0.00
2014-9-2,0.0,0.0,0.0,0.0,0.0,0.0,0,0,100,29.77,29.56,8,2,8,0.00
2014-9-3,89.2,47.0,0.0,56.0,32.3,0.0,60,28,28,29.88,29.53,12,4,12,0.00
2014-9-4,77.7,70.8,64.0,62.3,52.2,47.3,70,53,35,30.00,29.88,10,3,10,0.00
2014-9-5,79.0,74.6,71.2,64.4,62.5,59.4,75,66,53,30.00,29.83,12,4,12,0.00
2014-9-6,80.6,75.8,73.9,68.2,66.1,64.0,78,72,58,29.83,29.62,12,4,12,0.00
2014-9-7,75.0,67.6,61.2,66.9,61.9,50.6,90,82,51,30.00,29.68,14,3,14,0.00
2014-9-8,72.7,64.9,58.6,57.6,47.9,40.7,88,57,34,30.15,30.00,17,4,17,0.00
2014-9-9,73.4,67.0,62.4,51.8,45.6,41.5,60,47,36,30.12,29.97,15,5,15,0.00
2014-9-10,74.1,68.6,64.4,54.8,51.5,48.1,67,55,41,29.97,29.85,17,4,17,0.00
2014-9-11,77.0,69.5,61.7,63.1,53.9,49.2,74,59,44,29.85,29.62,15,4,15,0.00
2014-9-12,71.8,65.8,58.6,63.4,44.4,39.8,75,47,34,30.00,29.68,11,4,13,0.00
2014-9-13,72.9,63.5,55.8,60.2,45.1,39.7,88,53,31,30.06,29.88,18,4,18,0.00
2014-9-14,64.6,59.5,54.9,60.1,47.3,38.3,89,66,44,30.00,29.88,13,3,13,0.00
2014-9-15,67.6,59.8,53.6,42.2,38.3,34.4,59,46,34,30.03,29.91,10,3,10,0.00
2014-9-16,70.0,62.6,57.0,45.7,41.1,34.9,57,46,34,29.91,29.77,9,3,10,0.00
2014-9-17,68.9,62.0,54.7,44.1,40.6,36.9,62,47,33,29.83,29.74,10,3,10,0.00
2014-9-18,70.9,62.9,53.4,40.9,37.9,35.4,54,41,28,29.91,29.74,14,3,14,0.00
2014-9-19,63.3,56.6,47.8,37.3,28.3,24.0,39,34,27,30.24,29.91,16,5,16,0.00
2014-9-20,69.8,59.2,45.9,48.1,37.0,24.1,53,44,36,30.24,29.91,12,4,12,0.00
2014-9-21,78.6,71.6,65.7,67.3,59.2,48.1,90,66,50,29.91,29.35,18,5,19,0.00
2014-9-22,70.2,66.3,55.8,66.2,50.0,28.4,90,61,31,29.88,29.35,17,6,17,0.00
2014-9-23,63.7,58.3,52.0,39.2,32.9,28.0,47,38,33,30.24,29.88,14,4,15,0.00
2014-9-24,70.3,61.4,53.1,47.3,40.3,35.9,60,46,33,30.42,30.24,17,4,17,0.00
2014-9-25,63.1,60.5,57.0,59.4,50.5,39.8,91,71,52,30.36,30.00,12,4,12,0.00
2014-9-26,65.1,61.0,55.2,61.8,57.9,52.0,91,89,85,30.00,29.94,16,4,16,0.00
2014-9-27,71.8,62.2,52.2,60.7,53.6,49.0,90,75,45,29.97,29.91,8,2,8,0.00
2014-9-28,72.3,66.5,60.3,59.3,55.4,51.2,76,68,56,29.97,29.83,5,2,9,0.00
2014-9-29,66.9,66.9,66.9,57.6,57.6,57.6,72,72,72,29.83,29.83,2,2,5,0.00
2014-10-2,59.2,56.1,54.0,56.9,53.9,51.7,93,92,92,29.94,29.88,15,4,15,0.00
2014-10-3,59.9,56.9,53.4,57.6,54.8,51.3,93,93,92,29.91,29.71,15,3,17,0.00
2014-10-4,65.8,61.6,57.6,63.8,59.5,55.6,93,93,92,29.71,29.35,17,4,21,0.00
2014-10-5,65.1,56.3,51.8,63.0,47.3,33.8,93,75,43,29.77,29.35,14,6,14,0.00
2014-10-6,61.5,56.7,51.4,48.0,36.1,31.6,63,46,37,29.97,29.77,13,4,13,0.00
2014-10-7,70.9,65.5,60.6,60.4,52.4,45.2,81,64,43,29.97,29.80,24,7,24,0.00
2014-10-8,68.0,65.5,62.6,63.9,59.1,47.2,91,80,56,29.80,29.56,14,8,16,0.00
2014-10-9,63.3,59.3,53.8,47.0,33.7,27.9,56,38,29,29.80,29.68,16,8,17,0.00
2014-10-10,60.6,57.1,52.0,34.2,32.4,29.6,45,39,36,29.94,29.80,11,4,11,0.00
2014-10-11,56.1,53.3,50.2,49.8,44.1,32.7,90,74,42,29.94,29.85,10,2,10,0.00
2014-10-12,54.5,50.9,47.8,52.2,48.4,45.3,93,91,90,30.12,29.91,12,2,12,0.00
2014-10-13,61.7,55.6,48.7,53.0,48.6,46.2,92,79,60,30.18,30.09,10,2,10,0.00
2014-10-14,70.3,66.2,60.8,57.6,55.5,51.0,73,69,61,30.09,29.97,13,3,13,0.00
2014-10-15,74.3,69.8,66.4,60.9,59.3,56.7,74,69,62,29.97,29.80,15,5,15,0.00
2014-10-16,72.0,68.8,65.5,64.5,61.8,59.7,90,79,70,29.80,29.47,22,7,22,0.00
2014-10-17,65.5,63.5,62.4,62.6,61.0,60.1,93,92,90,29.53,29.41,14,5,14,0.00
2014-10-18,66.4,63.3,59.0,63.7,60.9,56.4,93,92,91,29.50,29.32,12,3,12,0.04
2014-10-19,58.8,53.2,45.9,56.5,38.4,22.8,92,60,37,29.77,29.41,19,5,19,0.00
2014-10-20,58.1,48.1,40.6,36.9,25.7,19.0,46,41,37,29.91,29.77,17,7,17,0.00
2014-10-21,63.7,59.8,56.3,50.5,45.7,36.7,69,60,45,29.83,29.71,18,4,18,0.00
2014-10-22,60.3,58.2,55.2,55.5,52.1,48.7,91,81,69,29.77,29.50,25,6,25,0.00
2014-10-23,61.9,58.6,55.4,59.5,56.3,53.4,93,92,91,29.50,29.29,18,5,18,0.00
2014-10-24,55.4,51.6,49.1,53.4,49.7,47.5,94,93,93,29.56,29.38,14,4,14,0.00
2014-10-25,59.7,53.1,47.5,55.2,49.9,45.8,94,89,73,29.59,29.35,16,5,16,0.00
2014-10-26,60.4,55.0,50.2,53.0,38.8,29.4,78,56,40,29.53,29.26,17,6,17,0.00
2014-10-27,59.4,53.4,48.9,34.1,32.1,30.9,54,44,35,29.85,29.53,14,5,14,0.00
2014-10-28,62.4,56.1,47.5,52.8,40.8,30.3,72,57,46,29.91,29.77,13,4,13,0.00
2014-10-29,66.2,63.3,55.8,56.7,53.9,42.8,75,72,55,29.77,29.62,13,4,13,0.00
2014-10-30,57.6,52.8,48.9,49.7,44.5,38.2,86,74,57,29.80,29.68,14,2,14,0.00
2014-10-31,54.3,51.1,48.2,38.2,35.4,30.8,62,55,47,29.83,29.71,15,3,15,0.00
2014-11-1,53.1,50.1,45.5,47.7,40.1,30.8,89,70,47,29.71,29.50,27,7,27,0.00
2014-11-2,45.5,39.1,35.6,42.5,36.3,30.1,91,90,78,29.65,29.32,28,10,28,0.00
2014-11-3,49.6,42.3,35.1,30.1,21.7,15.6,78,45,29,29.91,29.65,18,8,20,0.00
2014-11-4,55.8,50.1,43.5,43.2,32.1,25.1,63,50,41,29.97,29.88,12,3,12,0.00
2014-11-5,59.4,57.4,53.8,47.7,45.2,41.9,69,64,58,29.94,29.83,14,5,14,0.00
2014-11-6,55.9,53.3,51.6,52.3,46.4,39.0,89,78,60,29.94,29.29,13,3,13,0.00
2014-11-7,55.0,46.7,39.2,51.7,41.1,23.7,92,82,53,29.62,29.26,21,7,21,0.00
2014-11-8,49.5,41.7,36.1,31.0,25.2,20.1,59,52,46,29.83,29.62,15,7,15,0.00
2014-11-9,54.5,50.5,45.3,36.4,32.7,28.6,56,50,44,29.83,29.71,15,4,15,0.00
2014-11-10,52.3,46.7,40.1,37.5,31.9,24.8,65,56,50,30.03,29.83,8,2,8,0.00
2014-11-11,58.3,52.0,46.4,45.8,41.2,35.3,72,67,63,30.03,29.80,16,6,16,0.00
2014-11-12,58.3,54.5,48.7,50.2,46.4,35.9,80,74,62,29.80,29.68,13,2,13,0.00
2014-11-13,48.6,45.1,39.9,35.7,25.6,21.7,61,46,39,29.88,29.74,12,3,12,0.00
2014-11-14,44.4,37.4,34.3,35.2,30.0,18.5,86,75,48,29.94,29.68,17,6,17,0.00
2014-11-15,36.1,34.0,31.1,19.0,14.4,10.2,55,45,35,30.18,29.91,17,6,17,0.00
2014-11-16,41.2,36.2,30.4,25.4,17.7,10.6,53,47,38,30.27,29.97,10,2,12,0.00
2014-11-17,60.4,48.9,41.0,54.4,41.9,25.4,90,77,53,29.97,29.26,27,6,27,0.00
2014-11-18,54.9,38.7,28.8,51.8,32.6,8.0,92,80,42,29.80,29.26,20,9,20,0.00
2014-11-19,39.6,31.0,25.7,19.2,10.2,5.8,52,41,40,30.00,29.80,19,9,19,0.00
2014-11-20,46.4,41.5,34.7,27.1,21.6,10.6,63,46,33,29.91,29.62,21,10,21,0.00
2014-11-21,35.8,32.3,28.8,10.8,5.5,2.0,35,32,30,30.27,29.74,21,9,21,0.00
2014-11-22,47.3,37.4,27.9,26.2,13.0,1.2,45,36,31,30.30,29.94,24,12,24,0.00
2014-11-23,50.9,48.8,46.9,33.7,28.4,23.9,55,45,40,30.03,29.94,22,7,22,0.00
2014-11-24,63.0,57.8,49.1,57.5,50.8,33.7,90,78,55,29.94,29.50,30,11,30,0.00
2014-11-25,57.0,53.2,47.8,54.1,50.8,45.9,93,92,90,29.94,29.59,14,4,14,0.00
2014-11-26,48.4,45.3,42.4,46.2,43.3,40.4,94,93,92,30.00,29.35,30,6,30,0.00
2014-11-27,42.3,37.6,34.9,40.4,35.7,33.0,94,93,92,29.83,29.38,27,5,28,0.00
2014-11-28,35.4,31.9,27.9,33.3,29.9,25.3,93,92,90,30.06,29.77,18,7,18,0.00
2014-11-29,32.2,29.3,26.4,30.4,27.0,23.6,93,91,88,30.21,30.06,15,4,15,0.00
2014-11-30,50.0,43.2,32.2,47.8,41.0,30.4,94,92,89,30.12,29.91,14,6,14,0.00
2014-12-1,52.9,50.2,43.0,50.9,48.3,40.6,93,93,92,30.24,29.88,17,6,17,0.04
2014-12-2,42.8,38.3,35.8,40.6,36.3,33.4,94,92,90,30.50,30.21,20,6,20,0.00
2014-12-3,52.7,49.0,41.4,50.3,47.1,39.5,94,93,92,30.21,29.74,22,9,22,0.00
2014-12-4,41.4,37.3,34.3,39.0,34.4,31.2,93,89,83,30.36,29.91,19,6,19,0.00
2014-12-5,41.2,36.7,31.8,36.7,33.4,29.0,91,88,83,30.50,30.24,22,5,22,0.00
2014-12-6,48.6,46.5,41.2,45.1,42.7,36.4,91,87,83,30.24,29.94,23,5,23,0.00
2014-12-7,42.8,36.3,30.9,40.2,32.8,23.1,92,87,72,30.45,29.97,31,12,31,0.00
2014-12-8,37.6,33.2,30.6,30.7,25.7,22.1,77,74,70,30.53,30.27,27,8,27,0.00
2014-12-9,55.8,47.9,37.4,52.0,43.4,30.9,91,84,77,30.27,29.32,39,10,39,0.00
2014-12-10,50.7,46.1,41.5,48.2,43.9,39.6,93,92,90,29.38,29.26,15,4,15,0.00
2014-12-11,41.5,35.7,32.7,39.7,33.8,30.7,93,93,92,29.65,29.29,17,11,21,0.00
2014-12-12,36.0,33.6,31.8,34.1,31.6,29.8,93,92,92,29.74,29.65,10,6,14,0.00
2014-12-13,39.7,35.2,32.4,32.4,29.1,24.0,92,79,59,29.71,29.62,14,6,14,0.00
2014-12-14,40.6,36.0,33.1,28.7,25.2,23.5,72,65,53,29.74,29.62,13,4,13,0.00
2014-12-15,40.6,36.1,33.3,29.5,27.0,24.5,75,69,58,29.97,29.74,11,3,11,0.00
2014-12-16,46.2,41.8,37.6,38.8,33.4,29.4,75,72,70,30.00,29.71,14,4,14,0.00
2014-12-17,50.7,46.6,41.2,46.2,42.5,38.8,91,86,75,29.71,29.53,13,5,13,0.00
2014-12-18,41.9,39.0,35.8,38.8,32.5,25.5,91,78,59,29.71,29.56,18,7,18,0.00
2014-12-19,36.9,35.0,32.5,25.9,18.8,14.2,66,52,44,29.97,29.71,16,6,16,0.00
2014-12-20,37.8,35.0,32.2,32.1,23.3,14.6,81,63,48,30.12,29.97,13,4,13,0.00
2014-12-21,41.7,39.2,37.4,37.8,35.4,32.1,90,86,81,30.18,30.09,14,4,14,0.00
2014-12-22,45.1,40.9,37.4,41.5,38.1,34.5,92,90,87,30.21,30.09,17,3,17,0.00
2014-12-23,48.7,46.2,41.4,45.9,43.7,39.2,92,91,89,30.09,29.91,17,5,17,0.00
2014-12-24,62.8,52.8,48.0,60.1,50.3,45.7,92,91,88,29.91,29.44,26,6,26,0.00
2014-12-25,61.7,49.7,41.7,58.9,47.6,39.8,93,92,91,29.83,29.35,21,7,26,0.00
2014-12-26,45.1,41.9,39.9,42.7,39.8,37.5,94,92,90,30.03,29.83,14,6,14,0.00
2014-12-27,45.1,41.2,36.7,43.0,39.0,34.3,93,92,91,30.06,29.91,12,4,12,0.00
2014-12-28,46.9,44.8,39.9,44.5,42.4,37.2,92,91,90,29.91,29.62,14,6,14,0.00
2014-12-29,39.9,36.7,32.7,37.2,23.3,13.1,90,60,40,30.06,29.83,14,5,14,0.00
2014-12-30,32.7,28.3,23.9,14.7,6.4,-1.0,49,39,32,30.18,30.03,16,5,16,0.00
2014-12-31,29.8,26.2,21.9,4.4,1.4,-2.1,37,34,31,30.18,29.94,16,6,16,0.00
2015-1-1,38.7,31.7,26.6,13.2,5.6,0.7,36,33,31,29.94,29.77,21,13,25,0.00
2015-1-2,40.3,36.8,32.5,12.2,10.1,7.3,35,33,30,30.30,29.80,23,9,23,0.00